Mont Saint Michel — FNMT — position and weather

sailwx.info

Track history (hours):
 
Tides and Currents Weather Stations Pressure Air Temp Water Temp Dewpoint Dewpoint Depression Visibility Wind Speed Wind Dir Waves Ship Positions

Mont Saint Michel

Last reported at 2019-Aug-22 09:30 UTC. Time now 2019-Aug-22 10:00 UTC.
Position N 50°07' W 000°44'.

Length 173 m; beam 29 m.

Type: Ship. MMSI: 227023100.

Date/timePositionNaut miles runAvg speedWind from/ knotsBaromVisibWave heightAir tempDewpointWater temp
2019-Aug-22 09:30N 50°07' W 000°44'1119.1
2019-Aug-22 08:57N 49°57' W 000°38'919.3
2019-Aug-22 08:30N 49°49' W 000°32'1019.3
2019-Aug-22 08:00N 49°41' W 000°25'1019.2
2019-Aug-22 07:30N 49°32' W 000°20'1019.3
2019-Aug-22 07:00N 49°23' W 000°16'510.6
2019-Aug-22 06:30N 49°17' W 000°15'0 0.0
2019-Aug-22 06:00N 49°17' W 000°15'0 0.0
2019-Aug-22 05:30N 49°17' W 000°15'0 0.0
2019-Aug-22 05:00N 49°17' W 000°15'0 0.2
2019-Aug-22 04:30N 49°17' W 000°15'612.1
2019-Aug-22 04:01N 49°23' W 000°15'510.9
2019-Aug-22 03:31N 49°28' W 000°19'611.2
2019-Aug-22 03:01N 49°33' W 000°22'611.1
2019-Aug-22 02:30N 49°39' W 000°24'611.2
2019-Aug-22 02:01N 49°44' W 000°27'611.4
2019-Aug-22 01:31N 49°49' W 000°30'611.8
2019-Aug-22 01:01N 49°55' W 000°33'611.9
2019-Aug-22 00:30N 50°01' W 000°35'713.4
2019-Aug-22 00:00N 50°07' W 000°39'816.1
2019-Aug-21 23:30N 50°15' W 000°43'816.0
2019-Aug-21 23:00N 50°22' W 000°47'816.0
2019-Aug-21 22:30N 50°30' W 000°52'816.1
2019-Aug-21 22:00N 50°37' W 000°57'714.5
2019-Aug-21 21:30N 50°43' W 001°02'611.9
2019-Aug-21 21:01N 50°49' W 001°06'0 0.9
2019-Aug-21 20:30N 50°49' W 001°06'0 0.0
2019-Aug-21 20:00N 50°49' W 001°06'0 0.0
2019-Aug-21 19:30N 50°49' W 001°06'0 0.0
2019-Aug-21 19:00N 50°49' W 001°06'0 0.0
2019-Aug-21 18:30N 50°49' W 001°06'0 0.9
2019-Aug-21 18:00N 50°49' W 001°07'611.5
2019-Aug-21 17:31N 50°43' W 001°03'815.2
2019-Aug-21 17:01N 50°37' W 000°57'815.2
2019-Aug-21 16:31N 50°30' W 000°52'815.3
2019-Aug-21 16:01N 50°23' W 000°47'918.0
2019-Aug-21 15:30N 50°14' W 000°43'1020.1
2019-Aug-21 15:01N 50°05' W 000°38'1019.9
2019-Aug-21 14:31N 49°55' W 000°33'918.3
2019-Aug-21 14:01N 49°47' W 000°28'816.3
2019-Aug-21 13:31N 49°39' W 000°24'816.3
2019-Aug-21 13:01N 49°31' W 000°20'816.0
2019-Aug-21 12:31N 49°23' W 000°17'612.4
2019-Aug-21 12:00N 49°17' W 000°15'0 0.0
2019-Aug-21 11:30N 49°17' W 000°15'0 0.0
2019-Aug-21 11:00N 49°17' W 000°15'0 0.0
2019-Aug-21 10:30N 49°17' W 000°15'0 0.0
2019-Aug-21 10:00N 49°17' W 000°15'0 0.0
2019-Aug-21 09:30N 49°17' W 000°15'0 0.0
2019-Aug-21 09:00N 49°17' W 000°15'0 0.0
2019-Aug-21 08:30N 49°17' W 000°15'0 0.0
2019-Aug-21 08:00N 49°17' W 000°15'0 0.0
2019-Aug-21 07:30N 49°17' W 000°15'0 0.0
2019-Aug-21 07:00N 49°17' W 000°15'0 0.0
2019-Aug-21 06:30N 49°17' W 000°15'0 0.0
2019-Aug-21 06:00N 49°17' W 000°15'0 0.0
2019-Aug-21 05:30N 49°17' W 000°15'3 6.4
2019-Aug-21 05:01N 49°21' W 000°14'611.0
2019-Aug-21 04:30N 49°25' W 000°18'510.6
2019-Aug-21 04:01N 49°30' W 000°22'510.7
2019-Aug-21 03:31N 49°35' W 000°24'510.9
2019-Aug-21 03:01N 49°40' W 000°27'510.7
2019-Aug-21 02:31N 49°46' W 000°29'611.2
2019-Aug-21 02:01N 49°51' W 000°31'612.1
2019-Aug-21 01:30N 49°57' W 000°34'815.2
2019-Aug-21 01:00N 50°04' W 000°38'816.5
2019-Aug-21 00:31N 50°12' W 000°42'816.3
2019-Aug-21 00:00N 50°19' W 000°46'816.3
2019-Aug-20 23:30N 50°27' W 000°51'816.6
2019-Aug-20 23:00N 50°35' W 000°55'815.9
2019-Aug-20 22:30N 50°42' W 000°59'714.5
2019-Aug-20 22:01N 50°48' W 001°07'1 2.2
2019-Aug-20 21:30N 50°49' W 001°06'0 0.0
2019-Aug-20 21:00N 50°49' W 001°06'0 0.0
2019-Aug-20 20:30N 50°49' W 001°06'1 1.2
2019-Aug-20 20:00N 50°49' W 001°07'612.7
2019-Aug-20 19:30N 50°43' W 001°01'918.7
2019-Aug-20 19:00N 50°35' W 000°54'1020.1
2019-Aug-20 18:30N 50°26' W 000°48'1118.1
2019-Aug-20 17:55N 50°15' W 000°46'819.4
2019-Aug-20 17:30N 50°08' W 000°42'1019.6
2019-Aug-20 17:00N 49°58' W 000°37'1019.5
2019-Aug-20 16:30N 49°49' W 000°32'1019.5
2019-Aug-20 16:00N 49°40' W 000°27'1019.4
2019-Aug-20 15:30N 49°31' W 000°20'1019.0
2019-Aug-20 15:00N 49°22' W 000°15'510.1
2019-Aug-20 14:30N 49°17' W 000°15'0 0.0
2019-Aug-20 14:00N 49°17' W 000°15'0 0.0
2019-Aug-20 13:31N 49°17' W 000°15'0 0.0
2019-Aug-20 13:01N 49°17' W 000°15'3 6.8
2019-Aug-20 12:30N 49°21' W 000°14'1020.9
2019-Aug-20 12:00N 49°30' W 000°21'1020.0
2019-Aug-20 11:30N 49°40' W 000°25'1019.2
2019-Aug-20 11:00N 49°49' W 000°29'1019.5
2019-Aug-20 10:30N 49°58' W 000°33'1020.3
2019-Aug-20 10:00N 50°07' W 000°41'2019.7
2019-Aug-20 08:59N 50°26' W 000°52'919.5
2019-Aug-20 08:31N 50°35' W 000°57'917.1
2019-Aug-20 08:00N 50°43' W 001°01'713.1
2019-Aug-20 07:30N 50°49' W 001°07'0 1.0
2019-Aug-20 07:00N 50°49' W 001°06'0 0.0
2019-Aug-20 06:30N 50°49' W 001°06'0 0.0
2019-Aug-20 06:00N 50°49' W 001°06'1 1.0
2019-Aug-20 05:30N 50°49' W 001°07'4 8.7
2019-Aug-20 05:01N 50°44' W 001°05'713.0
2019-Aug-20 04:31N 50°39' W 000°60'713.8
2019-Aug-20 04:00N 50°32' W 000°58'2214.0
2019-Aug-20 02:28N 50°11' W 000°46'614.0
2019-Aug-20 02:00N 50°05' W 000°43'713.8
2019-Aug-20 01:30N 49°59' W 000°39'713.4
2019-Aug-20 01:00N 49°53' W 000°35'510.4
2019-Aug-20 00:30N 49°49' W 000°30'713.5
2019-Aug-20 00:00N 49°43' W 000°26'612.2
2019-Aug-19 23:30N 49°37' W 000°23'510.5
2019-Aug-19 23:00N 49°32' W 000°20'510.3
2019-Aug-19 22:30N 49°27' W 000°17'510.5
2019-Aug-19 22:00N 49°22' W 000°15'5 9.5
2019-Aug-19 21:31N 49°17' W 000°15'0 0.1
2019-Aug-19 21:00N 49°17' W 000°15'0 0.0
2019-Aug-19 20:30N 49°17' W 000°15'0 0.0
2019-Aug-19 20:00N 49°17' W 000°15'3 6.0
2019-Aug-19 19:31N 49°20' W 000°14'611.9
2019-Aug-19 19:00N 49°26' W 000°16'917.4
2019-Aug-19 18:31N 49°34' W 000°23'1020.1
2019-Aug-19 18:00N 49°43' W 000°29'1020.1
2019-Aug-19 17:31N 49°53' W 000°34'1019.9
2019-Aug-19 17:01N 50°02' W 000°39'1019.9
2019-Aug-19 16:30N 50°11' W 000°44'1120.1
2019-Aug-19 15:58N 50°22' W 000°49'920.2
2019-Aug-19 15:30N 50°31' W 000°54'1019.5
2019-Aug-19 15:00N 50°39' W 001°00'917.8
2019-Aug-19 14:30N 50°47' W 001°07'1 2.9
2019-Aug-19 14:00N 50°49' W 001°06'0 0.0
2019-Aug-19 13:30N 50°49' W 001°06'0 0.0
2019-Aug-19 13:00N 50°49' W 001°06'0 0.0
2019-Aug-19 12:30N 50°49' W 001°06'2 4.6
2019-Aug-19 12:01N 50°46' W 001°06'917.4
2019-Aug-19 11:30N 50°39' W 000°59'917.3
2019-Aug-19 11:00N 50°31' W 000°53'1918.6
2019-Aug-19 09:59N 50°13' W 000°43'919.1
2019-Aug-19 09:31N 50°04' W 000°39'918.9
2019-Aug-19 09:01N 49°55' W 000°34'917.8
2019-Aug-19 08:31N 49°47' W 000°29'918.1
2019-Aug-19 08:00N 49°38' W 000°24'918.4
2019-Aug-19 07:31N 49°30' W 000°20'918.7
2019-Aug-19 07:00N 49°21' W 000°15'4 7.4
2019-Aug-19 06:30N 49°17' W 000°15'0 0.0
2019-Aug-19 06:00N 49°17' W 000°15'0 0.0
2019-Aug-19 05:30N 49°17' W 000°15'0 0.0
2019-Aug-19 05:00N 49°17' W 000°15'0 0.4
2019-Aug-19 04:30N 49°18' W 000°15'816.4
2019-Aug-19 04:01N 49°26' W 000°17'1019.1
2019-Aug-19 03:31N 49°34' W 000°24'815.6
2019-Aug-19 03:00N 49°41' W 000°29'714.3
2019-Aug-19 02:31N 49°48' W 000°33'714.5
2019-Aug-19 02:00N 49°55' W 000°37'815.0
2019-Aug-19 01:30N 50°02' W 000°42'815.3
2019-Aug-19 00:59N 50°09' W 000°46'915.2
2019-Aug-19 00:23N 50°18' W 000°50'615.2
2019-Aug-19 00:00N 50°23' W 000°53'815.4
2019-Aug-18 23:31N 50°31' W 000°56'714.9
2019-Aug-18 23:01N 50°38' W 001°00'713.6
2019-Aug-18 22:30N 50°44' W 001°04'510.0
2019-Aug-18 22:00N 50°49' W 001°06'0 0.6
2019-Aug-18 21:30N 50°49' W 001°06'0 0.0
2019-Aug-18 21:00N 50°49' W 001°06'0 0.0
2019-Aug-18 20:30N 50°49' W 001°06'0 0.2
2019-Aug-18 20:01N 50°49' W 001°06'5 9.3
2019-Aug-18 19:30N 50°44' W 001°04'917.5
2019-Aug-18 19:00N 50°37' W 000°55'1019.8
2019-Aug-18 18:30N 50°28' W 000°51'1220.1
2019-Aug-18 17:55N 50°17' W 000°44'820.4
2019-Aug-18 17:30N 50°09' W 000°40'1020.6
2019-Aug-18 17:00N 49°59' W 000°36'1020.7
2019-Aug-18 16:30N 49°49' W 000°31'1020.7
2019-Aug-18 16:00N 49°39' W 000°25'1020.7
2019-Aug-18 15:30N 49°30' W 000°20'1020.3
2019-Aug-18 15:00N 49°20' W 000°14'3 5.7
2019-Aug-18 14:30N 49°17' W 000°15'0 0.0
2019-Aug-18 14:01N 49°17' W 000°15'0 0.0
2019-Aug-18 13:31N 49°17' W 000°15'0 0.0
2019-Aug-18 13:00N 49°17' W 000°15'3 6.4
2019-Aug-18 12:31N 49°21' W 000°14'1019.7
2019-Aug-18 12:01N 49°30' W 000°19'918.7
2019-Aug-18 11:31N 49°38' W 000°25'1019.1
2019-Aug-18 11:00N 49°48' W 000°29'1019.3
2019-Aug-18 10:31N 49°57' W 000°33'1019.6
2019-Aug-18 10:01N 50°06' W 000°38'1121.4
2019-Aug-18 09:30N 50°16' W 000°44'1021.3
2019-Aug-18 09:01N 50°26' W 000°50'1121.5
2019-Aug-18 08:30N 50°36' W 000°57'917.6
2019-Aug-18 08:00N 50°44' W 001°03'5 5.1
2019-Aug-18 07:00N 50°49' W 001°06'0 0.0
2019-Aug-18 06:30N 50°49' W 001°06'0 0.0
2019-Aug-18 06:00N 50°49' W 001°06'0 0.8
2019-Aug-18 05:30N 50°49' W 001°06'510.7
2019-Aug-18 05:00N 50°44' W 001°03'612.6
2019-Aug-18 04:30N 50°38' W 000°58'714.9
2019-Aug-18 04:00N 50°31' W 000°57'611.3
2019-Aug-18 03:30N 50°25' W 000°54'510.9
2019-Aug-18 03:00N 50°20' W 000°50'711.5
2019-Aug-18 02:22N 50°14' W 000°46'411.7
2019-Aug-18 02:00N 50°10' W 000°44'611.7
2019-Aug-18 01:30N 50°04' W 000°41'611.5
2019-Aug-18 01:00N 49°59' W 000°36'611.3
2019-Aug-18 00:30N 49°54' W 000°32'611.0
2019-Aug-18 00:00N 49°49' W 000°29'510.8
2019-Aug-17 23:30N 49°44' W 000°26'510.9
2019-Aug-17 23:00N 49°39' W 000°22'611.3
2019-Aug-17 22:30N 49°34' W 000°21'611.2
2019-Aug-17 22:00N 49°28' W 000°18'510.8
2019-Aug-17 21:30N 49°23' W 000°16'611.8
2019-Aug-17 21:00N 49°17' W 000°15'0 0.1
2019-Aug-17 20:31N 49°17' W 000°15'0 0.0
2019-Aug-17 20:00N 49°17' W 000°15'0 0.0
2019-Aug-17 19:30N 49°17' W 000°15'4 7.7
2019-Aug-17 19:00N 49°21' W 000°14'1020.3
2019-Aug-17 18:30N 49°31' W 000°19'1918.8
2019-Aug-17 17:30N 49°48' W 000°29'918.1
2019-Aug-17 17:00N 49°57' W 000°34'917.6
2019-Aug-17 16:30N 50°05' W 000°40'917.8
2019-Aug-17 16:00N 50°13' W 000°45'1019.5
2019-Aug-17 15:30N 50°22' W 000°50'1020.2
2019-Aug-17 15:00N 50°32' W 000°55'1019.7
2019-Aug-17 14:30N 50°41' W 001°01'714.9
2019-Aug-17 14:00N 50°48' W 001°07'1 2.5
2019-Aug-17 13:30N 50°49' W 001°06'0 0.0
2019-Aug-17 13:00N 50°49' W 001°06'0 0.0
2019-Aug-17 12:30N 50°49' W 001°06'1 1.8
2019-Aug-17 12:00N 50°48' W 001°07'815.5
2019-Aug-17 11:30N 50°41' W 001°01'1020.1
2019-Aug-17 11:00N 50°32' W 000°55'1119.8
2019-Aug-17 10:27N 50°22' W 000°48'919.5
2019-Aug-17 10:00N 50°14' W 000°43'1019.4
2019-Aug-17 09:30N 50°05' W 000°38'1019.1
2019-Aug-17 09:00N 49°55' W 000°34'919.0
2019-Aug-17 08:30N 49°47' W 000°29'919.0
2019-Aug-17 08:00N 49°38' W 000°24'1019.2
2019-Aug-17 07:30N 49°29' W 000°19'918.8
2019-Aug-17 07:00N 49°20' W 000°14'2 4.5
2019-Aug-17 06:30N 49°17' W 000°15'0 0.0
2019-Aug-17 06:00N 49°17' W 000°15'0 0.0
2019-Aug-17 05:30N 49°17' W 000°15'0 0.0
2019-Aug-17 05:00N 49°17' W 000°15'0 0.2
2019-Aug-17 04:31N 49°17' W 000°15'713.5
2019-Aug-17 04:00N 49°24' W 000°15'816.6
2019-Aug-17 03:30N 49°31' W 000°21'816.9
2019-Aug-17 03:00N 49°39' W 000°25'816.7
2019-Aug-17 02:30N 49°47' W 000°31'816.6
2019-Aug-17 02:00N 49°55' W 000°35'816.8
2019-Aug-17 01:30N 50°03' W 000°39'1417.1
2019-Aug-17 00:40N 50°17' W 000°46'317.1
2019-Aug-17 00:30N 50°19' W 000°47'714.3
2019-Aug-17 00:00N 50°26' W 000°51'713.9
2019-Aug-16 23:30N 50°32' W 000°54'714.0
2019-Aug-16 23:00N 50°39' W 000°59'714.1
2019-Aug-16 22:31N 50°45' W 001°05'4 8.0
2019-Aug-16 22:00N 50°49' W 001°06'0 0.0
2019-Aug-16 21:30N 50°49' W 001°06'0 0.0
2019-Aug-16 21:00N 50°49' W 001°06'0 0.0
2019-Aug-16 20:30N 50°49' W 001°06'1 1.2
2019-Aug-16 20:01N 50°48' W 001°07'612.1
2019-Aug-16 19:31N 50°43' W 001°02'816.6
2019-Aug-16 19:01N 50°36' W 000°58'918.5
2019-Aug-16 18:31N 50°26' W 000°55'918.7
2019-Aug-16 18:00N 50°17' W 000°51'919.0
2019-Aug-16 17:31N 50°08' W 000°46'1019.4
2019-Aug-16 17:01N 49°59' W 000°41'1019.6
2019-Aug-16 16:31N 49°50' W 000°36'1019.5
2019-Aug-16 16:01N 49°41' W 000°31'1019.6
2019-Aug-16 15:31N 49°32' W 000°24'1019.6
2019-Aug-16 15:01N 49°24' W 000°17'612.8
2019-Aug-16 14:30N 49°17' W 000°15'0 0.0
2019-Aug-16 14:00N 49°17' W 000°15'0 0.0
2019-Aug-16 13:30N 49°17' W 000°15'0 0.0
2019-Aug-16 13:00N 49°17' W 000°15'4 7.4
2019-Aug-16 12:30N 49°21' W 000°14'1019.3
2019-Aug-16 12:00N 49°30' W 000°18'918.7
2019-Aug-16 11:30N 49°39' W 000°23'1020.7
2019-Aug-16 11:00N 49°48' W 000°31'1020.7
2019-Aug-16 10:30N 49°58' W 000°36'1020.8
2019-Aug-16 10:00N 50°08' W 000°42'1020.3
2019-Aug-16 09:30N 50°17' W 000°47'1020.0
2019-Aug-16 09:00N 50°27' W 000°51'1020.5
2019-Aug-16 08:30N 50°36' W 000°57'917.4
2019-Aug-16 08:00N 50°44' W 001°04'5 9.7
2019-Aug-16 07:30N 50°49' W 001°06'0 0.0
2019-Aug-16 07:01N 50°49' W 001°06'0 0.0
2019-Aug-16 06:30N 50°49' W 001°06'0 0.0
2019-Aug-16 06:01N 50°49' W 001°06'1 1.7
2019-Aug-16 05:30N 50°48' W 001°07'611.7
2019-Aug-16 05:01N 50°43' W 001°02'612.8
2019-Aug-16 04:31N 50°37' W 000°58'714.9
2019-Aug-16 04:00N 50°30' W 000°56'1011.6
2019-Aug-16 03:06N 50°20' W 000°52'411.9
2019-Aug-16 02:48N 50°17' W 000°49'311.6
2019-Aug-16 02:30N 50°14' W 000°47'611.7
2019-Aug-16 02:00N 50°08' W 000°44'611.8
2019-Aug-16 01:30N 50°03' W 000°41'612.1
2019-Aug-16 01:00N 49°58' W 000°36'611.8
2019-Aug-16 00:30N 49°52' W 000°32'611.5
2019-Aug-16 00:00N 49°47' W 000°29'611.1
2019-Aug-15 23:30N 49°42' W 000°25'511.0
2019-Aug-15 23:00N 49°37' W 000°22'510.9
2019-Aug-15 22:30N 49°32' W 000°20'510.8
2019-Aug-15 22:00N 49°26' W 000°17'510.7
2019-Aug-15 21:30N 49°21' W 000°15'4 7.9
2019-Aug-15 21:00N 49°17' W 000°15'0 0.0
2019-Aug-15 20:30N 49°17' W 000°15'0 0.0
2019-Aug-15 20:00N 49°17' W 000°15'0 0.0
2019-Aug-15 19:30N 49°17' W 000°15'2 4.2
2019-Aug-15 19:00N 49°19' W 000°15'918.2
2019-Aug-15 18:31N 49°28' W 000°16'1019.2
2019-Aug-15 18:00N 49°37' W 000°24'1019.1
2019-Aug-15 17:30N 49°45' W 000°30'918.8
2019-Aug-15 17:00N 49°54' W 000°36'918.3
2019-Aug-15 16:30N 50°03' W 000°41'918.1
2019-Aug-15 16:00N 50°11' W 000°45'1019.6
2019-Aug-15 15:30N 50°21' W 000°50'1020.5
2019-Aug-15 15:00N 50°30' W 000°55'1020.4
2019-Aug-15 14:30N 50°40' W 000°60'816.7
2019-Aug-15 14:00N 50°47' W 001°07'2 3.1
2019-Aug-15 13:30N 50°49' W 001°06'0 0.0
2019-Aug-15 13:00N 50°49' W 001°06'0 0.0
2019-Aug-15 12:30N 50°49' W 001°06'1 1.3
2019-Aug-15 12:01N 50°48' W 001°07'714.3
2019-Aug-15 11:30N 50°42' W 001°01'1019.6
2019-Aug-15 11:00N 50°33' W 000°56'1019.7
2019-Aug-15 10:29N 50°24' W 000°49'1119.6
2019-Aug-15 09:56N 50°13' W 000°43'819.3
2019-Aug-15 09:30N 50°06' W 000°39'918.9
2019-Aug-15 09:00N 49°57' W 000°34'918.8
2019-Aug-15 08:30N 49°48' W 000°29'919.0
2019-Aug-15 08:00N 49°39' W 000°24'1019.2
2019-Aug-15 07:30N 49°30' W 000°20'918.8
2019-Aug-15 07:00N 49°21' W 000°15'4 7.5
2019-Aug-15 06:31N 49°17' W 000°15'0 0.0
2019-Aug-15 06:01N 49°17' W 000°15'0 0.0
2019-Aug-15 05:31N 49°17' W 000°15'0 0.0
2019-Aug-15 05:01N 49°17' W 000°15'0 0.1
2019-Aug-15 04:31N 49°17' W 000°15'612.3
2019-Aug-15 04:00N 49°24' W 000°15'510.8
2019-Aug-15 03:30N 49°28' W 000°19'510.8
2019-Aug-15 03:00N 49°33' W 000°22'510.7
2019-Aug-15 02:30N 49°38' W 000°25'612.4
2019-Aug-15 02:00N 49°44' W 000°30'713.6
2019-Aug-15 01:30N 49°50' W 000°35'713.5
2019-Aug-15 01:00N 49°56' W 000°38'714.0
2019-Aug-15 00:30N 50°03' W 000°41'714.2
2019-Aug-15 00:00N 50°10' W 000°44'714.3
2019-Aug-14 23:30N 50°17' W 000°45'714.4
2019-Aug-14 23:00N 50°24' W 000°48'714.7
2019-Aug-14 22:30N 50°30' W 000°53'714.8
2019-Aug-14 22:00N 50°37' W 000°57'714.6
2019-Aug-14 21:30N 50°44' W 001°03'611.1
2019-Aug-14 21:01N 50°49' W 001°07'1 1.2
2019-Aug-14 20:30N 50°49' W 001°06'0 0.0
2019-Aug-14 20:00N 50°49' W 001°06'0 0.0
2019-Aug-14 19:30N 50°49' W 001°06'0 0.0
2019-Aug-14 19:00N 50°49' W 001°06'0 0.0
2019-Aug-14 18:30N 50°49' W 001°06'1 1.9
2019-Aug-14 18:00N 50°48' W 001°07'713.1
2019-Aug-14 17:31N 50°43' W 001°00'816.5
2019-Aug-14 17:01N 50°35' W 000°59'918.4
2019-Aug-14 16:30N 50°26' W 000°58'816.1
2019-Aug-14 16:00N 50°18' W 000°55'816.0
2019-Aug-14 15:30N 50°10' W 000°50'816.4
2019-Aug-14 15:01N 50°03' W 000°44'816.8
2019-Aug-14 14:31N 49°55' W 000°39'816.8
2019-Aug-14 14:01N 49°48' W 000°34'816.9
2019-Aug-14 13:30N 49°40' W 000°28'816.9
2019-Aug-14 13:01N 49°32' W 000°23'817.0
2019-Aug-14 12:31N 49°25' W 000°17'714.9
2019-Aug-14 12:00N 49°17' W 000°15'0 0.1
2019-Aug-14 11:30N 49°17' W 000°15'0 0.0
2019-Aug-14 11:00N 49°17' W 000°15'0 0.0
2019-Aug-14 10:30N 49°17' W 000°15'0 0.0
2019-Aug-14 10:00N 49°17' W 000°15'0 0.0
2019-Aug-14 09:30N 49°17' W 000°15'0 0.0
2019-Aug-14 09:00N 49°17' W 000°15'0 0.0
2019-Aug-14 08:30N 49°17' W 000°15'0 0.0
2019-Aug-14 08:00N 49°17' W 000°15'0 0.0
2019-Aug-14 07:30N 49°17' W 000°15'0 0.0
2019-Aug-14 07:00N 49°17' W 000°15'0 0.0
2019-Aug-14 06:30N 49°17' W 000°15'0 0.0
2019-Aug-14 06:00N 49°17' W 000°15'0 0.0
2019-Aug-14 05:30N 49°17' W 000°15'3 5.6
2019-Aug-14 05:01N 49°20' W 000°14'611.2
2019-Aug-14 04:31N 49°26' W 000°15'510.6
2019-Aug-14 04:01N 49°30' W 000°19'510.6
2019-Aug-14 03:31N 49°35' W 000°23'510.6
2019-Aug-14 03:01N 49°40' W 000°26'611.7
2019-Aug-14 02:31N 49°46' W 000°29'714.6
2019-Aug-14 02:00N 49°52' W 000°33'714.5
2019-Aug-14 01:30N 49°59' W 000°37'714.4
2019-Aug-14 01:00N 50°06' W 000°40'1714.9
2019-Aug-13 23:52N 50°22' W 000°49'615.6
2019-Aug-13 23:30N 50°27' W 000°52'815.4
2019-Aug-13 23:01N 50°34' W 000°56'815.8
2019-Aug-13 22:31N 50°42' W 001°02'713.1
2019-Aug-13 22:00N 50°47' W 001°07'1 2.7
2019-Aug-13 21:30N 50°49' W 001°06'0 0.0
2019-Aug-13 21:00N 50°49' W 001°06'0 0.0
2019-Aug-13 20:30N 50°49' W 001°06'0 0.4
2019-Aug-13 20:00N 50°49' W 001°06'510.6
2019-Aug-13 19:30N 50°44' W 001°03'917.6
2019-Aug-13 19:01N 50°36' W 000°57'1118.7
2019-Aug-13 18:26N 50°26' W 000°51'919.9
2019-Aug-13 18:00N 50°17' W 000°48'1019.7
2019-Aug-13 17:30N 50°08' W 000°43'1019.8
2019-Aug-13 17:00N 49°59' W 000°38'1020.0
2019-Aug-13 16:30N 49°49' W 000°33'1020.2
2019-Aug-13 16:01N 49°40' W 000°28'1020.1
2019-Aug-13 15:30N 49°31' W 000°21'1020.1
2019-Aug-13 15:01N 49°22' W 000°15'4 8.6
2019-Aug-13 14:30N 49°17' W 000°15'0 0.0
2019-Aug-13 14:00N 49°17' W 000°15'0 0.0
2019-Aug-13 13:30N 49°17' W 000°15'0 0.0
2019-Aug-13 13:00N 49°17' W 000°15'0 0.5
2019-Aug-13 12:30N 49°18' W 000°15'816.5
2019-Aug-13 12:00N 49°26' W 000°16'919.0
2019-Aug-13 11:31N 49°35' W 000°21'1019.7
2019-Aug-13 11:00N 49°44' W 000°27'1020.8
2019-Aug-13 10:30N 49°54' W 000°32'1020.9
2019-Aug-13 10:00N 50°03' W 000°39'1120.7
2019-Aug-13 09:30N 50°13' W 000°44'1421.1
2019-Aug-13 08:49N 50°27' W 000°52'621.1
2019-Aug-13 08:30N 50°33' W 000°56'1019.0
2019-Aug-13 08:01N 50°42' W 001°01'714.9
2019-Aug-13 07:30N 50°48' W 001°07'1 1.9
2019-Aug-13 07:00N 50°49' W 001°06'0 0.0
2019-Aug-13 06:30N 50°49' W 001°06'0 0.0
2019-Aug-13 06:00N 50°49' W 001°06'0 0.2
2019-Aug-13 05:30N 50°49' W 001°06'5 9.5
2019-Aug-13 05:01N 50°44' W 001°04'713.5
2019-Aug-13 04:31N 50°39' W 000°57'815.6
2019-Aug-13 04:00N 50°31' W 000°54'814.8
2019-Aug-13 03:26N 50°23' W 000°50'1111.2
2019-Aug-13 02:25N 50°12' W 000°44'1011.4
2019-Aug-13 01:30N 50°03' W 000°39'611.5
2019-Aug-13 01:00N 49°57' W 000°35'611.5
2019-Aug-13 00:30N 49°52' W 000°32'611.5
2019-Aug-13 00:00N 49°46' W 000°29'611.5
2019-Aug-12 23:30N 49°41' W 000°26'611.6
2019-Aug-12 23:00N 49°36' W 000°22'611.3
2019-Aug-12 22:30N 49°31' W 000°19'611.2
2019-Aug-12 22:00N 49°25' W 000°17'510.8
2019-Aug-12 21:31N 49°20' W 000°14'3 5.2
2019-Aug-12 21:00N 49°17' W 000°15'0 0.0
2019-Aug-12 20:30N 49°17' W 000°15'0 0.0
2019-Aug-12 20:00N 49°17' W 000°15'0 0.0
2019-Aug-12 19:30N 49°17' W 000°15'2 4.0
2019-Aug-12 19:00N 49°19' W 000°15'918.1
2019-Aug-12 18:30N 49°28' W 000°19'1019.2
2019-Aug-12 18:00N 49°37' W 000°26'1019.5
2019-Aug-12 17:30N 49°46' W 000°31'1019.8
2019-Aug-12 17:00N 49°55' W 000°37'1020.0
2019-Aug-12 16:30N 50°04' W 000°43'1819.6
2019-Aug-12 15:35N 50°21' W 000°52'220.6
2019-Aug-12 15:30N 50°23' W 000°52'1020.5
2019-Aug-12 15:00N 50°33' W 000°56'1019.4
2019-Aug-12 14:30N 50°42' W 000°58'815.2
2019-Aug-12 14:00N 50°48' W 001°07'1 2.4
2019-Aug-12 13:30N 50°49' W 001°06'0 0.0
2019-Aug-12 13:00N 50°49' W 001°06'0 0.0
2019-Aug-12 12:30N 50°49' W 001°06'1 1.3
2019-Aug-12 12:01N 50°48' W 001°07'713.2
2019-Aug-12 11:30N 50°43' W 001°02'1019.3
2019-Aug-12 11:00N 50°34' W 000°55'1120.9
2019-Aug-12 10:30N 50°24' W 000°49'1220.9
2019-Aug-12 09:57N 50°13' W 000°44'921.1
2019-Aug-12 09:31N 50°05' W 000°38'  
Track history (hours):
 
Tides and Currents Weather Stations Pressure Air Temp Water Temp Dewpoint Dewpoint Depression Visibility Wind Speed Wind Dir Waves Ship Positions

Mont Saint Michel

Last reported at 2019-Aug-22 09:30 UTC. Time now 2019-Aug-22 10:00 UTC.
Position N 50°07' W 000°44'.

Length 173 m; beam 29 m.

Type: Ship. MMSI: 227023100.

Date/timePositionNaut miles runAvg speedWind from/ knotsBaromVisibWave heightAir tempDewpointWater temp
2019-Aug-22 09:30N 50°07' W 000°44'1119.1
2019-Aug-22 08:57N 49°57' W 000°38'919.3
2019-Aug-22 08:30N 49°49' W 000°32'1019.3
2019-Aug-22 08:00N 49°41' W 000°25'1019.2
2019-Aug-22 07:30N 49°32' W 000°20'1019.3
2019-Aug-22 07:00N 49°23' W 000°16'510.6
2019-Aug-22 06:30N 49°17' W 000°15'0 0.0
2019-Aug-22 06:00N 49°17' W 000°15'0 0.0
2019-Aug-22 05:30N 49°17' W 000°15'0 0.0
2019-Aug-22 05:00N 49°17' W 000°15'0 0.2
2019-Aug-22 04:30N 49°17' W 000°15'612.1
2019-Aug-22 04:01N 49°23' W 000°15'510.9
2019-Aug-22 03:31N 49°28' W 000°19'611.2
2019-Aug-22 03:01N 49°33' W 000°22'611.1
2019-Aug-22 02:30N 49°39' W 000°24'611.2
2019-Aug-22 02:01N 49°44' W 000°27'611.4
2019-Aug-22 01:31N 49°49' W 000°30'611.8
2019-Aug-22 01:01N 49°55' W 000°33'611.9
2019-Aug-22 00:30N 50°01' W 000°35'713.4
2019-Aug-22 00:00N 50°07' W 000°39'816.1
2019-Aug-21 23:30N 50°15' W 000°43'816.0
2019-Aug-21 23:00N 50°22' W 000°47'816.0
2019-Aug-21 22:30N 50°30' W 000°52'816.1
2019-Aug-21 22:00N 50°37' W 000°57'714.5
2019-Aug-21 21:30N 50°43' W 001°02'611.9
2019-Aug-21 21:01N 50°49' W 001°06'0 0.9
2019-Aug-21 20:30N 50°49' W 001°06'0 0.0
2019-Aug-21 20:00N 50°49' W 001°06'0 0.0
2019-Aug-21 19:30N 50°49' W 001°06'0 0.0
2019-Aug-21 19:00N 50°49' W 001°06'0 0.0
2019-Aug-21 18:30N 50°49' W 001°06'0 0.9
2019-Aug-21 18:00N 50°49' W 001°07'611.5
2019-Aug-21 17:31N 50°43' W 001°03'815.2
2019-Aug-21 17:01N 50°37' W 000°57'815.2
2019-Aug-21 16:31N 50°30' W 000°52'815.3
2019-Aug-21 16:01N 50°23' W 000°47'918.0
2019-Aug-21 15:30N 50°14' W 000°43'1020.1
2019-Aug-21 15:01N 50°05' W 000°38'1019.9
2019-Aug-21 14:31N 49°55' W 000°33'918.3
2019-Aug-21 14:01N 49°47' W 000°28'816.3
2019-Aug-21 13:31N 49°39' W 000°24'816.3
2019-Aug-21 13:01N 49°31' W 000°20'816.0
2019-Aug-21 12:31N 49°23' W 000°17'612.4
2019-Aug-21 12:00N 49°17' W 000°15'0 0.0
2019-Aug-21 11:30N 49°17' W 000°15'0 0.0
2019-Aug-21 11:00N 49°17' W 000°15'0 0.0
2019-Aug-21 10:30N 49°17' W 000°15'0 0.0
2019-Aug-21 10:00N 49°17' W 000°15'0 0.0
2019-Aug-21 09:30N 49°17' W 000°15'0 0.0
2019-Aug-21 09:00N 49°17' W 000°15'0 0.0
2019-Aug-21 08:30N 49°17' W 000°15'0 0.0
2019-Aug-21 08:00N 49°17' W 000°15'0 0.0
2019-Aug-21 07:30N 49°17' W 000°15'0 0.0
2019-Aug-21 07:00N 49°17' W 000°15'0 0.0
2019-Aug-21 06:30N 49°17' W 000°15'0 0.0
2019-Aug-21 06:00N 49°17' W 000°15'0 0.0
2019-Aug-21 05:30N 49°17' W 000°15'3 6.4
2019-Aug-21 05:01N 49°21' W 000°14'611.0
2019-Aug-21 04:30N 49°25' W 000°18'510.6
2019-Aug-21 04:01N 49°30' W 000°22'510.7
2019-Aug-21 03:31N 49°35' W 000°24'510.9
2019-Aug-21 03:01N 49°40' W 000°27'510.7
2019-Aug-21 02:31N 49°46' W 000°29'611.2
2019-Aug-21 02:01N 49°51' W 000°31'612.1
2019-Aug-21 01:30N 49°57' W 000°34'815.2
2019-Aug-21 01:00N 50°04' W 000°38'816.5
2019-Aug-21 00:31N 50°12' W 000°42'816.3
2019-Aug-21 00:00N 50°19' W 000°46'816.3
2019-Aug-20 23:30N 50°27' W 000°51'816.6
2019-Aug-20 23:00N 50°35' W 000°55'815.9
2019-Aug-20 22:30N 50°42' W 000°59'714.5
2019-Aug-20 22:01N 50°48' W 001°07'1 2.2
2019-Aug-20 21:30N 50°49' W 001°06'0 0.0
2019-Aug-20 21:00N 50°49' W 001°06'0 0.0
2019-Aug-20 20:30N 50°49' W 001°06'1 1.2
2019-Aug-20 20:00N 50°49' W 001°07'612.7
2019-Aug-20 19:30N 50°43' W 001°01'918.7
2019-Aug-20 19:00N 50°35' W 000°54'1020.1
2019-Aug-20 18:30N 50°26' W 000°48'1118.1
2019-Aug-20 17:55N 50°15' W 000°46'819.4
2019-Aug-20 17:30N 50°08' W 000°42'1019.6
2019-Aug-20 17:00N 49°58' W 000°37'1019.5
2019-Aug-20 16:30N 49°49' W 000°32'1019.5
2019-Aug-20 16:00N 49°40' W 000°27'1019.4
2019-Aug-20 15:30N 49°31' W 000°20'1019.0
2019-Aug-20 15:00N 49°22' W 000°15'510.1
2019-Aug-20 14:30N 49°17' W 000°15'0 0.0
2019-Aug-20 14:00N 49°17' W 000°15'0 0.0
2019-Aug-20 13:31N 49°17' W 000°15'0 0.0
2019-Aug-20 13:01N 49°17' W 000°15'3 6.8
2019-Aug-20 12:30N 49°21' W 000°14'1020.9
2019-Aug-20 12:00N 49°30' W 000°21'1020.0
2019-Aug-20 11:30N 49°40' W 000°25'1019.2
2019-Aug-20 11:00N 49°49' W 000°29'1019.5
2019-Aug-20 10:30N 49°58' W 000°33'1020.3
2019-Aug-20 10:00N 50°07' W 000°41'2019.7
2019-Aug-20 08:59N 50°26' W 000°52'919.5
2019-Aug-20 08:31N 50°35' W 000°57'917.1
2019-Aug-20 08:00N 50°43' W 001°01'713.1
2019-Aug-20 07:30N 50°49' W 001°07'0 1.0
2019-Aug-20 07:00N 50°49' W 001°06'0 0.0
2019-Aug-20 06:30N 50°49' W 001°06'0 0.0
2019-Aug-20 06:00N 50°49' W 001°06'1 1.0
2019-Aug-20 05:30N 50°49' W 001°07'4 8.7
2019-Aug-20 05:01N 50°44' W 001°05'713.0
2019-Aug-20 04:31N 50°39' W 000°60'713.8
2019-Aug-20 04:00N 50°32' W 000°58'2214.0
2019-Aug-20 02:28N 50°11' W 000°46'614.0
2019-Aug-20 02:00N 50°05' W 000°43'713.8
2019-Aug-20 01:30N 49°59' W 000°39'713.4
2019-Aug-20 01:00N 49°53' W 000°35'510.4
2019-Aug-20 00:30N 49°49' W 000°30'713.5
2019-Aug-20 00:00N 49°43' W 000°26'612.2
2019-Aug-19 23:30N 49°37' W 000°23'510.5
2019-Aug-19 23:00N 49°32' W 000°20'510.3
2019-Aug-19 22:30N 49°27' W 000°17'510.5
2019-Aug-19 22:00N 49°22' W 000°15'5 9.5
2019-Aug-19 21:31N 49°17' W 000°15'0 0.1
2019-Aug-19 21:00N 49°17' W 000°15'0 0.0
2019-Aug-19 20:30N 49°17' W 000°15'0 0.0
2019-Aug-19 20:00N 49°17' W 000°15'3 6.0
2019-Aug-19 19:31N 49°20' W 000°14'611.9
2019-Aug-19 19:00N 49°26' W 000°16'917.4
2019-Aug-19 18:31N 49°34' W 000°23'1020.1
2019-Aug-19 18:00N 49°43' W 000°29'1020.1
2019-Aug-19 17:31N 49°53' W 000°34'1019.9
2019-Aug-19 17:01N 50°02' W 000°39'1019.9
2019-Aug-19 16:30N 50°11' W 000°44'1120.1
2019-Aug-19 15:58N 50°22' W 000°49'920.2
2019-Aug-19 15:30N 50°31' W 000°54'1019.5
2019-Aug-19 15:00N 50°39' W 001°00'917.8
2019-Aug-19 14:30N 50°47' W 001°07'1 2.9
2019-Aug-19 14:00N 50°49' W 001°06'0 0.0
2019-Aug-19 13:30N 50°49' W 001°06'0 0.0
2019-Aug-19 13:00N 50°49' W 001°06'0 0.0
2019-Aug-19 12:30N 50°49' W 001°06'2 4.6
2019-Aug-19 12:01N 50°46' W 001°06'917.4
2019-Aug-19 11:30N 50°39' W 000°59'917.3
2019-Aug-19 11:00N 50°31' W 000°53'1918.6
2019-Aug-19 09:59N 50°13' W 000°43'919.1
2019-Aug-19 09:31N 50°04' W 000°39'918.9
2019-Aug-19 09:01N 49°55' W 000°34'917.8
2019-Aug-19 08:31N 49°47' W 000°29'918.1
2019-Aug-19 08:00N 49°38' W 000°24'918.4
2019-Aug-19 07:31N 49°30' W 000°20'918.7
2019-Aug-19 07:00N 49°21' W 000°15'4 7.4
2019-Aug-19 06:30N 49°17' W 000°15'0 0.0
2019-Aug-19 06:00N 49°17' W 000°15'0 0.0
2019-Aug-19 05:30N 49°17' W 000°15'0 0.0
2019-Aug-19 05:00N 49°17' W 000°15'0 0.4
2019-Aug-19 04:30N 49°18' W 000°15'816.4
2019-Aug-19 04:01N 49°26' W 000°17'1019.1
2019-Aug-19 03:31N 49°34' W 000°24'815.6
2019-Aug-19 03:00N 49°41' W 000°29'714.3
2019-Aug-19 02:31N 49°48' W 000°33'714.5
2019-Aug-19 02:00N 49°55' W 000°37'815.0
2019-Aug-19 01:30N 50°02' W 000°42'815.3
2019-Aug-19 00:59N 50°09' W 000°46'915.2
2019-Aug-19 00:23N 50°18' W 000°50'615.2
2019-Aug-19 00:00N 50°23' W 000°53'815.4
2019-Aug-18 23:31N 50°31' W 000°56'714.9
2019-Aug-18 23:01N 50°38' W 001°00'713.6
2019-Aug-18 22:30N 50°44' W 001°04'510.0
2019-Aug-18 22:00N 50°49' W 001°06'0 0.6
2019-Aug-18 21:30N 50°49' W 001°06'0 0.0
2019-Aug-18 21:00N 50°49' W 001°06'0 0.0
2019-Aug-18 20:30N 50°49' W 001°06'0 0.2
2019-Aug-18 20:01N 50°49' W 001°06'5 9.3
2019-Aug-18 19:30N 50°44' W 001°04'917.5
2019-Aug-18 19:00N 50°37' W 000°55'1019.8
2019-Aug-18 18:30N 50°28' W 000°51'1220.1
2019-Aug-18 17:55N 50°17' W 000°44'820.4
2019-Aug-18 17:30N 50°09' W 000°40'1020.6
2019-Aug-18 17:00N 49°59' W 000°36'1020.7
2019-Aug-18 16:30N 49°49' W 000°31'1020.7
2019-Aug-18 16:00N 49°39' W 000°25'1020.7
2019-Aug-18 15:30N 49°30' W 000°20'1020.3
2019-Aug-18 15:00N 49°20' W 000°14'3 5.7
2019-Aug-18 14:30N 49°17' W 000°15'0 0.0
2019-Aug-18 14:01N 49°17' W 000°15'0 0.0
2019-Aug-18 13:31N 49°17' W 000°15'0 0.0
2019-Aug-18 13:00N 49°17' W 000°15'3 6.4
2019-Aug-18 12:31N 49°21' W 000°14'1019.7
2019-Aug-18 12:01N 49°30' W 000°19'918.7
2019-Aug-18 11:31N 49°38' W 000°25'1019.1
2019-Aug-18 11:00N 49°48' W 000°29'1019.3
2019-Aug-18 10:31N 49°57' W 000°33'1019.6
2019-Aug-18 10:01N 50°06' W 000°38'1121.4
2019-Aug-18 09:30N 50°16' W 000°44'1021.3
2019-Aug-18 09:01N 50°26' W 000°50'1121.5
2019-Aug-18 08:30N 50°36' W 000°57'917.6
2019-Aug-18 08:00N 50°44' W 001°03'5 5.1
2019-Aug-18 07:00N 50°49' W 001°06'0 0.0
2019-Aug-18 06:30N 50°49' W 001°06'0 0.0
2019-Aug-18 06:00N 50°49' W 001°06'0 0.8
2019-Aug-18 05:30N 50°49' W 001°06'510.7
2019-Aug-18 05:00N 50°44' W 001°03'612.6
2019-Aug-18 04:30N 50°38' W 000°58'714.9
2019-Aug-18 04:00N 50°31' W 000°57'611.3
2019-Aug-18 03:30N 50°25' W 000°54'510.9
2019-Aug-18 03:00N 50°20' W 000°50'711.5
2019-Aug-18 02:22N 50°14' W 000°46'411.7
2019-Aug-18 02:00N 50°10' W 000°44'611.7
2019-Aug-18 01:30N 50°04' W 000°41'611.5
2019-Aug-18 01:00N 49°59' W 000°36'611.3
2019-Aug-18 00:30N 49°54' W 000°32'611.0
2019-Aug-18 00:00N 49°49' W 000°29'510.8
2019-Aug-17 23:30N 49°44' W 000°26'510.9
2019-Aug-17 23:00N 49°39' W 000°22'611.3
2019-Aug-17 22:30N 49°34' W 000°21'611.2
2019-Aug-17 22:00N 49°28' W 000°18'510.8
2019-Aug-17 21:30N 49°23' W 000°16'611.8
2019-Aug-17 21:00N 49°17' W 000°15'0 0.1
2019-Aug-17 20:31N 49°17' W 000°15'0 0.0
2019-Aug-17 20:00N 49°17' W 000°15'0 0.0
2019-Aug-17 19:30N 49°17' W 000°15'4 7.7
2019-Aug-17 19:00N 49°21' W 000°14'1020.3
2019-Aug-17 18:30N 49°31' W 000°19'1918.8
2019-Aug-17 17:30N 49°48' W 000°29'918.1
2019-Aug-17 17:00N 49°57' W 000°34'917.6
2019-Aug-17 16:30N 50°05' W 000°40'917.8
2019-Aug-17 16:00N 50°13' W 000°45'1019.5
2019-Aug-17 15:30N 50°22' W 000°50'1020.2
2019-Aug-17 15:00N 50°32' W 000°55'1019.7
2019-Aug-17 14:30N 50°41' W 001°01'714.9
2019-Aug-17 14:00N 50°48' W 001°07'1 2.5
2019-Aug-17 13:30N 50°49' W 001°06'0 0.0
2019-Aug-17 13:00N 50°49' W 001°06'0 0.0
2019-Aug-17 12:30N 50°49' W 001°06'1 1.8
2019-Aug-17 12:00N 50°48' W 001°07'815.5
2019-Aug-17 11:30N 50°41' W 001°01'1020.1
2019-Aug-17 11:00N 50°32' W 000°55'1119.8
2019-Aug-17 10:27N 50°22' W 000°48'919.5
2019-Aug-17 10:00N 50°14' W 000°43'1019.4
2019-Aug-17 09:30N 50°05' W 000°38'1019.1
2019-Aug-17 09:00N 49°55' W 000°34'919.0
2019-Aug-17 08:30N 49°47' W 000°29'919.0
2019-Aug-17 08:00N 49°38' W 000°24'1019.2
2019-Aug-17 07:30N 49°29' W 000°19'918.8
2019-Aug-17 07:00N 49°20' W 000°14'2 4.5
2019-Aug-17 06:30N 49°17' W 000°15'0 0.0
2019-Aug-17 06:00N 49°17' W 000°15'0 0.0
2019-Aug-17 05:30N 49°17' W 000°15'0 0.0
2019-Aug-17 05:00N 49°17' W 000°15'0 0.2
2019-Aug-17 04:31N 49°17' W 000°15'713.5
2019-Aug-17 04:00N 49°24' W 000°15'816.6
2019-Aug-17 03:30N 49°31' W 000°21'816.9
2019-Aug-17 03:00N 49°39' W 000°25'816.7
2019-Aug-17 02:30N 49°47' W 000°31'816.6
2019-Aug-17 02:00N 49°55' W 000°35'816.8
2019-Aug-17 01:30N 50°03' W 000°39'1417.1
2019-Aug-17 00:40N 50°17' W 000°46'317.1
2019-Aug-17 00:30N 50°19' W 000°47'714.3
2019-Aug-17 00:00N 50°26' W 000°51'713.9
2019-Aug-16 23:30N 50°32' W 000°54'714.0
2019-Aug-16 23:00N 50°39' W 000°59'714.1
2019-Aug-16 22:31N 50°45' W 001°05'4 8.0
2019-Aug-16 22:00N 50°49' W 001°06'0 0.0
2019-Aug-16 21:30N 50°49' W 001°06'0 0.0
2019-Aug-16 21:00N 50°49' W 001°06'0 0.0
2019-Aug-16 20:30N 50°49' W 001°06'1 1.2
2019-Aug-16 20:01N 50°48' W 001°07'612.1
2019-Aug-16 19:31N 50°43' W 001°02'816.6
2019-Aug-16 19:01N 50°36' W 000°58'918.5
2019-Aug-16 18:31N 50°26' W 000°55'918.7
2019-Aug-16 18:00N 50°17' W 000°51'919.0
2019-Aug-16 17:31N 50°08' W 000°46'1019.4
2019-Aug-16 17:01N 49°59' W 000°41'1019.6
2019-Aug-16 16:31N 49°50' W 000°36'1019.5
2019-Aug-16 16:01N 49°41' W 000°31'1019.6
2019-Aug-16 15:31N 49°32' W 000°24'1019.6
2019-Aug-16 15:01N 49°24' W 000°17'612.8
2019-Aug-16 14:30N 49°17' W 000°15'0 0.0
2019-Aug-16 14:00N 49°17' W 000°15'0 0.0
2019-Aug-16 13:30N 49°17' W 000°15'0 0.0
2019-Aug-16 13:00N 49°17' W 000°15'4 7.4
2019-Aug-16 12:30N 49°21' W 000°14'1019.3
2019-Aug-16 12:00N 49°30' W 000°18'918.7
2019-Aug-16 11:30N 49°39' W 000°23'1020.7
2019-Aug-16 11:00N 49°48' W 000°31'1020.7
2019-Aug-16 10:30N 49°58' W 000°36'1020.8
2019-Aug-16 10:00N 50°08' W 000°42'1020.3
2019-Aug-16 09:30N 50°17' W 000°47'1020.0
2019-Aug-16 09:00N 50°27' W 000°51'1020.5
2019-Aug-16 08:30N 50°36' W 000°57'917.4
2019-Aug-16 08:00N 50°44' W 001°04'5 9.7
2019-Aug-16 07:30N 50°49' W 001°06'0 0.0
2019-Aug-16 07:01N 50°49' W 001°06'0 0.0
2019-Aug-16 06:30N 50°49' W 001°06'0 0.0
2019-Aug-16 06:01N 50°49' W 001°06'1 1.7
2019-Aug-16 05:30N 50°48' W 001°07'611.7
2019-Aug-16 05:01N 50°43' W 001°02'612.8
2019-Aug-16 04:31N 50°37' W 000°58'714.9
2019-Aug-16 04:00N 50°30' W 000°56'1011.6
2019-Aug-16 03:06N 50°20' W 000°52'411.9
2019-Aug-16 02:48N 50°17' W 000°49'311.6
2019-Aug-16 02:30N 50°14' W 000°47'611.7
2019-Aug-16 02:00N 50°08' W 000°44'611.8
2019-Aug-16 01:30N 50°03' W 000°41'612.1
2019-Aug-16 01:00N 49°58' W 000°36'611.8
2019-Aug-16 00:30N 49°52' W 000°32'611.5
2019-Aug-16 00:00N 49°47' W 000°29'611.1
2019-Aug-15 23:30N 49°42' W 000°25'511.0
2019-Aug-15 23:00N 49°37' W 000°22'510.9
2019-Aug-15 22:30N 49°32' W 000°20'510.8
2019-Aug-15 22:00N 49°26' W 000°17'510.7
2019-Aug-15 21:30N 49°21' W 000°15'4 7.9
2019-Aug-15 21:00N 49°17' W 000°15'0 0.0
2019-Aug-15 20:30N 49°17' W 000°15'0 0.0
2019-Aug-15 20:00N 49°17' W 000°15'0 0.0
2019-Aug-15 19:30N 49°17' W 000°15'2 4.2
2019-Aug-15 19:00N 49°19' W 000°15'918.2
2019-Aug-15 18:31N 49°28' W 000°16'1019.2
2019-Aug-15 18:00N 49°37' W 000°24'1019.1
2019-Aug-15 17:30N 49°45' W 000°30'918.8
2019-Aug-15 17:00N 49°54' W 000°36'918.3
2019-Aug-15 16:30N 50°03' W 000°41'918.1
2019-Aug-15 16:00N 50°11' W 000°45'1019.6
2019-Aug-15 15:30N 50°21' W 000°50'1020.5
2019-Aug-15 15:00N 50°30' W 000°55'1020.4
2019-Aug-15 14:30N 50°40' W 000°60'816.7
2019-Aug-15 14:00N 50°47' W 001°07'2 3.1
2019-Aug-15 13:30N 50°49' W 001°06'0 0.0
2019-Aug-15 13:00N 50°49' W 001°06'0 0.0
2019-Aug-15 12:30N 50°49' W 001°06'1 1.3
2019-Aug-15 12:01N 50°48' W 001°07'714.3
2019-Aug-15 11:30N 50°42' W 001°01'1019.6
2019-Aug-15 11:00N 50°33' W 000°56'1019.7
2019-Aug-15 10:29N 50°24' W 000°49'1119.6
2019-Aug-15 09:56N 50°13' W 000°43'819.3
2019-Aug-15 09:30N 50°06' W 000°39'918.9
2019-Aug-15 09:00N 49°57' W 000°34'918.8
2019-Aug-15 08:30N 49°48' W 000°29'919.0
2019-Aug-15 08:00N 49°39' W 000°24'1019.2
2019-Aug-15 07:30N 49°30' W 000°20'918.8
2019-Aug-15 07:00N 49°21' W 000°15'4 7.5
2019-Aug-15 06:31N 49°17' W 000°15'0 0.0
2019-Aug-15 06:01N 49°17' W 000°15'0 0.0
2019-Aug-15 05:31N 49°17' W 000°15'0 0.0
2019-Aug-15 05:01N 49°17' W 000°15'0 0.1
2019-Aug-15 04:31N 49°17' W 000°15'612.3
2019-Aug-15 04:00N 49°24' W 000°15'510.8
2019-Aug-15 03:30N 49°28' W 000°19'510.8
2019-Aug-15 03:00N 49°33' W 000°22'510.7
2019-Aug-15 02:30N 49°38' W 000°25'612.4
2019-Aug-15 02:00N 49°44' W 000°30'713.6
2019-Aug-15 01:30N 49°50' W 000°35'713.5
2019-Aug-15 01:00N 49°56' W 000°38'714.0
2019-Aug-15 00:30N 50°03' W 000°41'714.2
2019-Aug-15 00:00N 50°10' W 000°44'714.3
2019-Aug-14 23:30N 50°17' W 000°45'714.4
2019-Aug-14 23:00N 50°24' W 000°48'714.7
2019-Aug-14 22:30N 50°30' W 000°53'714.8
2019-Aug-14 22:00N 50°37' W 000°57'714.6
2019-Aug-14 21:30N 50°44' W 001°03'611.1
2019-Aug-14 21:01N 50°49' W 001°07'1 1.2
2019-Aug-14 20:30N 50°49' W 001°06'0 0.0
2019-Aug-14 20:00N 50°49' W 001°06'0 0.0
2019-Aug-14 19:30N 50°49' W 001°06'0 0.0
2019-Aug-14 19:00N 50°49' W 001°06'0 0.0
2019-Aug-14 18:30N 50°49' W 001°06'1 1.9
2019-Aug-14 18:00N 50°48' W 001°07'713.1
2019-Aug-14 17:31N 50°43' W 001°00'816.5
2019-Aug-14 17:01N 50°35' W 000°59'918.4
2019-Aug-14 16:30N 50°26' W 000°58'816.1
2019-Aug-14 16:00N 50°18' W 000°55'816.0
2019-Aug-14 15:30N 50°10' W 000°50'816.4
2019-Aug-14 15:01N 50°03' W 000°44'816.8
2019-Aug-14 14:31N 49°55' W 000°39'816.8
2019-Aug-14 14:01N 49°48' W 000°34'816.9
2019-Aug-14 13:30N 49°40' W 000°28'816.9
2019-Aug-14 13:01N 49°32' W 000°23'817.0
2019-Aug-14 12:31N 49°25' W 000°17'714.9
2019-Aug-14 12:00N 49°17' W 000°15'0 0.1
2019-Aug-14 11:30N 49°17' W 000°15'0 0.0
2019-Aug-14 11:00N 49°17' W 000°15'0 0.0
2019-Aug-14 10:30N 49°17' W 000°15'0 0.0
2019-Aug-14 10:00N 49°17' W 000°15'0 0.0
2019-Aug-14 09:30N 49°17' W 000°15'0 0.0
2019-Aug-14 09:00N 49°17' W 000°15'0 0.0
2019-Aug-14 08:30N 49°17' W 000°15'0 0.0
2019-Aug-14 08:00N 49°17' W 000°15'0 0.0
2019-Aug-14 07:30N 49°17' W 000°15'0 0.0
2019-Aug-14 07:00N 49°17' W 000°15'0 0.0
2019-Aug-14 06:30N 49°17' W 000°15'0 0.0
2019-Aug-14 06:00N 49°17' W 000°15'0 0.0
2019-Aug-14 05:30N 49°17' W 000°15'3 5.6
2019-Aug-14 05:01N 49°20' W 000°14'611.2
2019-Aug-14 04:31N 49°26' W 000°15'510.6
2019-Aug-14 04:01N 49°30' W 000°19'510.6
2019-Aug-14 03:31N 49°35' W 000°23'510.6
2019-Aug-14 03:01N 49°40' W 000°26'611.7
2019-Aug-14 02:31N 49°46' W 000°29'714.6
2019-Aug-14 02:00N 49°52' W 000°33'714.5
2019-Aug-14 01:30N 49°59' W 000°37'714.4
2019-Aug-14 01:00N 50°06' W 000°40'1714.9
2019-Aug-13 23:52N 50°22' W 000°49'615.6
2019-Aug-13 23:30N 50°27' W 000°52'815.4
2019-Aug-13 23:01N 50°34' W 000°56'815.8
2019-Aug-13 22:31N 50°42' W 001°02'713.1
2019-Aug-13 22:00N 50°47' W 001°07'1 2.7
2019-Aug-13 21:30N 50°49' W 001°06'0 0.0
2019-Aug-13 21:00N 50°49' W 001°06'0 0.0
2019-Aug-13 20:30N 50°49' W 001°06'0 0.4
2019-Aug-13 20:00N 50°49' W 001°06'510.6
2019-Aug-13 19:30N 50°44' W 001°03'917.6
2019-Aug-13 19:01N 50°36' W 000°57'1118.7
2019-Aug-13 18:26N 50°26' W 000°51'919.9
2019-Aug-13 18:00N 50°17' W 000°48'1019.7
2019-Aug-13 17:30N 50°08' W 000°43'1019.8
2019-Aug-13 17:00N 49°59' W 000°38'1020.0
2019-Aug-13 16:30N 49°49' W 000°33'1020.2
2019-Aug-13 16:01N 49°40' W 000°28'1020.1
2019-Aug-13 15:30N 49°31' W 000°21'1020.1
2019-Aug-13 15:01N 49°22' W 000°15'4 8.6
2019-Aug-13 14:30N 49°17' W 000°15'0 0.0
2019-Aug-13 14:00N 49°17' W 000°15'0 0.0
2019-Aug-13 13:30N 49°17' W 000°15'0 0.0
2019-Aug-13 13:00N 49°17' W 000°15'0 0.5
2019-Aug-13 12:30N 49°18' W 000°15'816.5
2019-Aug-13 12:00N 49°26' W 000°16'919.0
2019-Aug-13 11:31N 49°35' W 000°21'1019.7
2019-Aug-13 11:00N 49°44' W 000°27'1020.8
2019-Aug-13 10:30N 49°54' W 000°32'1020.9
2019-Aug-13 10:00N 50°03' W 000°39'1120.7
2019-Aug-13 09:30N 50°13' W 000°44'1421.1
2019-Aug-13 08:49N 50°27' W 000°52'621.1
2019-Aug-13 08:30N 50°33' W 000°56'1019.0
2019-Aug-13 08:01N 50°42' W 001°01'714.9
2019-Aug-13 07:30N 50°48' W 001°07'1 1.9
2019-Aug-13 07:00N 50°49' W 001°06'0 0.0
2019-Aug-13 06:30N 50°49' W 001°06'0 0.0
2019-Aug-13 06:00N 50°49' W 001°06'0 0.2
2019-Aug-13 05:30N 50°49' W 001°06'5 9.5
2019-Aug-13 05:01N 50°44' W 001°04'713.5
2019-Aug-13 04:31N 50°39' W 000°57'815.6
2019-Aug-13 04:00N 50°31' W 000°54'814.8
2019-Aug-13 03:26N 50°23' W 000°50'1111.2
2019-Aug-13 02:25N 50°12' W 000°44'1011.4
2019-Aug-13 01:30N 50°03' W 000°39'611.5
2019-Aug-13 01:00N 49°57' W 000°35'611.5
2019-Aug-13 00:30N 49°52' W 000°32'611.5
2019-Aug-13 00:00N 49°46' W 000°29'611.5
2019-Aug-12 23:30N 49°41' W 000°26'611.6
2019-Aug-12 23:00N 49°36' W 000°22'611.3
2019-Aug-12 22:30N 49°31' W 000°19'611.2
2019-Aug-12 22:00N 49°25' W 000°17'510.8
2019-Aug-12 21:31N 49°20' W 000°14'3 5.2
2019-Aug-12 21:00N 49°17' W 000°15'0 0.0
2019-Aug-12 20:30N 49°17' W 000°15'0 0.0
2019-Aug-12 20:00N 49°17' W 000°15'0 0.0
2019-Aug-12 19:30N 49°17' W 000°15'2 4.0
2019-Aug-12 19:00N 49°19' W 000°15'918.1
2019-Aug-12 18:30N 49°28' W 000°19'1019.2
2019-Aug-12 18:00N 49°37' W 000°26'1019.5
2019-Aug-12 17:30N 49°46' W 000°31'1019.8
2019-Aug-12 17:00N 49°55' W 000°37'1020.0
2019-Aug-12 16:30N 50°04' W 000°43'1819.6
2019-Aug-12 15:35N 50°21' W 000°52'220.6
2019-Aug-12 15:30N 50°23' W 000°52'1020.5
2019-Aug-12 15:00N 50°33' W 000°56'1019.4
2019-Aug-12 14:30N 50°42' W 000°58'815.2
2019-Aug-12 14:00N 50°48' W 001°07'1 2.4
2019-Aug-12 13:30N 50°49' W 001°06'0 0.0
2019-Aug-12 13:00N 50°49' W 001°06'0 0.0
2019-Aug-12 12:30N 50°49' W 001°06'1 1.3
2019-Aug-12 12:01N 50°48' W 001°07'713.2
2019-Aug-12 11:30N 50°43' W 001°02'1019.3
2019-Aug-12 11:00N 50°34' W 000°55'1120.9
2019-Aug-12 10:30N 50°24' W 000°49'1220.9
2019-Aug-12 09:57N 50°13' W 000°44'921.1
2019-Aug-12 09:31N 50°05' W 000°38'  

Dump ship's entire track history